Time,TemperatureF,DewpointF,PressureIn,WindDirection,WindDirectionDegrees,WindSpeedMPH,WindSpeedGustMPH,Humidity,HourlyPrecipIn,Conditions,Clouds,dailyrainin,SoftwareType,DateUTC
2013-05-21 00:01:00,60.1,50.6,29.61,East,83,0.0,0.0,71,0.00,RA,,0.00,WeatherDisplay:10.37,2013-05-21 05:01:00,
2013-05-21 00:07:00,60.1,50.6,29.61,East,83,0.0,0.0,71,0.00,RA,,0.00,WeatherDisplay:10.37,2013-05-21 05:07:00,
2013-05-21 00:12:00,60.3,50.8,29.61,East,83,0.0,0.0,71,0.00,,,0.00,WeatherDisplay:10.37,2013-05-21 05:12:00,
2013-05-21 00:17:00,60.4,51.0,29.61,East,83,0.0,0.0,71,0.00,,,0.00,WeatherDisplay:10.37,2013-05-21 05:17:00,
2013-05-21 00:22:00,60.6,51.2,29.61,East,83,0.0,0.0,71,0.00,,,0.00,WeatherDisplay:10.37,2013-05-21 05:22:00,
2013-05-21 00:27:00,60.8,51.3,29.61,East,83,0.0,0.0,71,0.00,,,0.00,WeatherDisplay:10.37,2013-05-21 05:27:00,
2013-05-21 00:32:00,61.0,51.1,29.61,East,83,0.0,0.0,70,0.00,,,0.00,WeatherDisplay:10.37,2013-05-21 05:32:00,
2013-05-21 00:38:00,61.2,51.3,29.61,East,83,0.0,0.0,70,0.00,,,0.00,WeatherDisplay:10.37,2013-05-21 05:38:00,
2013-05-21 00:43:00,61.2,50.9,29.61,East,83,0.0,0.0,69,0.00,,,0.00,WeatherDisplay:10.37,2013-05-21 05:43:00,
2013-05-21 00:48:00,61.2,50.9,29.58,East,83,0.0,0.0,69,0.00,,,0.00,WeatherDisplay:10.37,2013-05-21 05:48:00,
2013-05-21 00:53:00,61.2,50.9,29.58,East,84,0.0,0.0,69,0.00,,,0.00,WeatherDisplay:10.37,2013-05-21 05:53:00,
2013-05-21 00:58:00,61.3,50.7,29.58,NE,48,0.0,0.0,68,0.00,,,0.00,WeatherDisplay:10.37,2013-05-21 05:58:00,
2013-05-21 01:03:00,61.5,50.9,29.58,ENE,59,0.0,0.0,68,0.00,,,0.00,WeatherDisplay:10.37,2013-05-21 06:03:00,
2013-05-21 01:09:00,61.7,51.0,29.58,East,81,0.0,0.0,68,0.00,,,0.00,WeatherDisplay:10.37,2013-05-21 06:09:00,
2013-05-21 01:14:00,61.9,50.8,29.58,ENE,71,0.0,0.0,67,0.00,,,0.00,WeatherDisplay:10.37,2013-05-21 06:14:00,
2013-05-21 01:19:00,62.1,51.0,29.58,ENE,69,3.5,3.5,67,0.00,,,0.00,WeatherDisplay:10.37,2013-05-21 06:19:00,
2013-05-21 01:24:00,62.2,50.7,29.58,NNW,333,0.0,0.0,66,0.00,,,0.00,WeatherDisplay:10.37,2013-05-21 06:24:00,
2013-05-21 01:29:00,62.4,50.9,29.58,SW,224,4.6,4.6,66,0.00,,,0.00,WeatherDisplay:10.37,2013-05-21 06:29:00,
2013-05-21 01:34:00,62.6,51.1,29.58,WSW,245,9.2,9.2,66,0.00,,,0.00,WeatherDisplay:10.37,2013-05-21 06:34:00,
2013-05-21 01:39:00,62.8,51.2,29.58,SSW,211,5.8,5.8,66,0.00,,,0.00,WeatherDisplay:10.37,2013-05-21 06:39:00,
2013-05-21 01:45:00,62.6,51.5,29.58,WSW,243,8.1,8.1,67,0.01,RA,,0.01,WeatherDisplay:10.37,2013-05-21 06:45:00,
2013-05-21 01:50:00,61.9,51.2,29.64,WSW,257,10.4,10.4,68,0.07,RA,,0.07,WeatherDisplay:10.37,2013-05-21 06:50:00,
2013-05-21 01:55:00,61.2,51.3,29.64,WSW,245,5.8,5.8,70,0.23,RA,,0.25,WeatherDisplay:10.37,2013-05-21 06:55:00,
2013-05-21 02:00:00,60.6,51.5,29.64,SW,220,5.8,5.8,72,0.34,RA,,0.34,WeatherDisplay:10.37,2013-05-21 07:00:00,
2013-05-21 02:05:00,59.9,51.2,29.61,WSW,252,5.8,5.8,73,0.41,RA,,0.42,WeatherDisplay:10.37,2013-05-21 07:05:00,
2013-05-21 02:11:00,59.4,51.1,29.61,WSW,245,5.8,5.8,74,0.48,RA,,0.48,WeatherDisplay:10.37,2013-05-21 07:11:00,
2013-05-21 02:16:00,59.2,51.3,29.61,West,278,3.5,3.5,75,0.52,RA,,0.52,WeatherDisplay:10.37,2013-05-21 07:16:00,
2013-05-21 02:21:00,58.8,51.3,29.64,West,259,3.5,3.6,76,0.55,RA,,0.56,WeatherDisplay:10.37,2013-05-21 07:21:00,
2013-05-21 02:26:00,58.8,51.6,29.64,WSW,251,3.5,3.5,77,0.58,RA,,0.58,WeatherDisplay:10.37,2013-05-21 07:26:00,
2013-05-21 02:31:00,58.6,51.8,29.64,WSW,251,0.0,0.0,78,0.59,RA,,0.59,WeatherDisplay:10.37,2013-05-21 07:31:00,
2013-05-21 02:36:00,58.6,52.1,29.64,SSW,213,0.0,0.0,79,0.60,RA,,0.60,WeatherDisplay:10.37,2013-05-21 07:36:00,
2013-05-21 02:41:00,58.5,52.3,29.64,SSW,213,0.0,0.0,80,0.61,RA,,0.61,WeatherDisplay:10.37,2013-05-21 07:41:00,
2013-05-21 02:46:00,58.5,52.6,29.64,SSW,213,0.0,0.0,81,0.62,RA,,0.63,WeatherDisplay:10.37,2013-05-21 07:46:00,
2013-05-21 02:52:00,58.5,52.6,29.64,SSW,213,0.0,0.0,81,0.49,RA,,0.64,WeatherDisplay:10.37,2013-05-21 07:52:00,
2013-05-21 02:57:00,58.5,53.0,29.64,SSW,213,0.0,0.0,82,0.35,RA,,0.64,WeatherDisplay:10.37,2013-05-21 07:57:00,
2013-05-21 03:02:00,58.5,53.0,29.61,SSW,213,0.0,0.0,82,0.29,RA,,0.65,WeatherDisplay:10.37,2013-05-21 08:02:00,
2013-05-21 03:07:00,58.3,53.1,29.61,SSW,213,0.0,0.0,83,0.22,RA,,0.65,WeatherDisplay:10.37,2013-05-21 08:07:00,
2013-05-21 03:12:00,58.3,53.1,29.61,SSW,213,0.0,0.0,83,0.18,RA,,0.66,WeatherDisplay:10.37,2013-05-21 08:12:00,
2013-05-21 03:18:00,58.3,53.1,29.61,SSW,213,0.0,0.0,83,0.11,RA,,0.66,WeatherDisplay:10.37,2013-05-21 08:18:00,
2013-05-21 03:23:00,58.3,53.5,29.61,SSW,213,0.0,0.0,84,0.10,,,0.66,WeatherDisplay:10.37,2013-05-21 08:23:00,
2013-05-21 03:28:00,58.3,53.5,29.61,NE,35,2.3,0.0,84,0.08,,,0.66,WeatherDisplay:10.37,2013-05-21 08:28:00,
2013-05-21 03:33:00,58.3,53.5,29.58,NE,56,0.0,0.0,84,0.06,,,0.66,WeatherDisplay:10.37,2013-05-21 08:33:00,
2013-05-21 03:38:00,58.3,53.8,29.58,NNE,14,0.0,0.0,85,0.07,RA,,0.67,WeatherDisplay:10.37,2013-05-21 08:38:00,
2013-05-21 03:44:00,58.3,53.8,29.58,North,357,0.0,0.0,85,0.06,RA,,0.67,WeatherDisplay:10.37,2013-05-21 08:44:00,
2013-05-21 03:49:00,58.3,53.8,29.58,North,357,0.0,0.0,85,0.04,,,0.67,WeatherDisplay:10.37,2013-05-21 08:49:00,
2013-05-21 03:54:00,58.1,53.6,29.58,North,357,0.0,0.0,85,0.03,,,0.67,WeatherDisplay:10.37,2013-05-21 08:54:00,
2013-05-21 03:59:00,58.1,53.9,29.58,North,357,0.0,0.0,86,0.03,,,0.67,WeatherDisplay:10.37,2013-05-21 08:59:00,
2013-05-21 04:04:00,58.1,53.9,29.58,North,357,0.0,0.0,86,0.02,,,0.67,WeatherDisplay:10.37,2013-05-21 09:04:00,
2013-05-21 04:10:00,58.1,53.9,29.58,North,357,0.0,0.0,86,0.02,,,0.67,WeatherDisplay:10.37,2013-05-21 09:10:00,
2013-05-21 04:15:00,58.1,53.9,29.58,ENE,74,0.0,0.0,86,0.01,,,0.67,WeatherDisplay:10.37,2013-05-21 09:15:00,
2013-05-21 04:20:00,58.1,53.9,29.58,ENE,64,0.0,0.0,86,0.01,,,0.67,WeatherDisplay:10.37,2013-05-21 09:20:00,
2013-05-21 04:25:00,58.1,54.2,29.58,ENE,64,0.0,0.0,87,0.01,,,0.67,WeatherDisplay:10.37,2013-05-21 09:25:00,
2013-05-21 04:30:00,58.1,54.2,29.58,ENE,64,0.0,0.0,87,0.01,,,0.67,WeatherDisplay:10.37,2013-05-21 09:30:00,
2013-05-21 04:35:00,57.9,54.1,29.58,ENE,64,0.0,0.0,87,0.00,,,0.67,WeatherDisplay:10.37,2013-05-21 09:35:00,
2013-05-21 04:41:00,57.9,54.1,29.58,ENE,70,0.0,0.0,87,0.00,,,0.67,WeatherDisplay:10.37,2013-05-21 09:41:00,
2013-05-21 04:46:00,57.9,54.1,29.58,ENE,70,0.0,0.0,87,0.00,,,0.67,WeatherDisplay:10.37,2013-05-21 09:46:00,
2013-05-21 04:51:00,57.9,54.1,29.58,ENE,70,0.0,0.0,87,0.00,,,0.67,WeatherDisplay:10.37,2013-05-21 09:51:00,
2013-05-21 04:56:00,57.9,54.1,29.58,ENE,70,0.0,0.0,87,0.00,,,0.67,WeatherDisplay:10.37,2013-05-21 09:56:00,
2013-05-21 05:01:00,57.7,54.2,29.58,ENE,70,0.0,0.0,88,0.00,,,0.67,WeatherDisplay:10.37,2013-05-21 10:01:00,
2013-05-21 05:06:00,57.9,54.4,29.58,ENE,70,0.0,0.0,88,0.00,,,0.67,WeatherDisplay:10.37,2013-05-21 10:06:00,
2013-05-21 05:11:00,57.9,54.4,29.58,ENE,70,0.0,0.0,88,0.00,,,0.67,WeatherDisplay:10.37,2013-05-21 10:11:00,
2013-05-21 05:16:00,57.9,54.4,29.58,SE,137,0.0,0.0,88,0.00,,,0.67,WeatherDisplay:10.37,2013-05-21 10:16:00,
2013-05-21 05:22:00,57.7,54.2,29.61,SE,137,0.0,0.0,88,0.00,,,0.67,WeatherDisplay:10.37,2013-05-21 10:22:00,
2013-05-21 05:27:00,57.7,54.2,29.61,SSE,147,0.0,0.0,88,0.00,,,0.67,WeatherDisplay:10.37,2013-05-21 10:27:00,
2013-05-21 05:32:00,57.6,54.0,29.61,SW,224,0.0,0.0,88,0.00,,,0.67,WeatherDisplay:10.37,2013-05-21 10:32:00,
2013-05-21 05:37:00,57.6,54.0,29.61,SSE,151,0.0,0.0,88,0.00,,,0.67,WeatherDisplay:10.37,2013-05-21 10:37:00,
2013-05-21 05:43:00,57.6,54.0,29.61,SSE,150,0.0,0.0,88,0.00,,,0.67,WeatherDisplay:10.37,2013-05-21 10:43:00,
2013-05-21 05:48:00,57.4,53.9,29.61,South,169,0.0,0.0,88,0.00,,,0.67,WeatherDisplay:10.37,2013-05-21 10:48:00,
2013-05-21 05:53:00,57.4,53.9,29.61,South,169,0.0,0.0,88,0.00,,,0.67,WeatherDisplay:10.37,2013-05-21 10:53:00,
2013-05-21 05:58:00,57.4,53.9,29.61,South,169,0.0,0.0,88,0.00,,,0.67,WeatherDisplay:10.37,2013-05-21 10:58:00,
2013-05-21 06:03:00,57.4,54.2,29.61,South,169,0.0,0.0,89,0.00,,,0.67,WeatherDisplay:10.37,2013-05-21 11:03:00,
2013-05-21 06:08:00,57.6,54.3,29.61,South,169,0.0,0.0,89,0.00,,,0.67,WeatherDisplay:10.37,2013-05-21 11:08:00,
2013-05-21 06:13:00,57.7,54.5,29.61,South,169,0.0,0.0,89,0.00,,,0.67,WeatherDisplay:10.37,2013-05-21 11:13:00,
2013-05-21 06:18:00,57.9,54.7,29.61,South,169,0.0,0.0,89,0.00,,,0.67,WeatherDisplay:10.37,2013-05-21 11:18:00,
2013-05-21 06:24:00,58.1,54.9,29.61,South,169,0.0,0.0,89,0.00,,,0.67,WeatherDisplay:10.37,2013-05-21 11:24:00,
2013-05-21 06:29:00,58.3,55.1,29.61,South,169,0.0,0.0,89,0.00,,,0.67,WeatherDisplay:10.37,2013-05-21 11:29:00,
2013-05-21 06:34:00,58.5,55.2,29.61,South,169,0.0,0.0,89,0.00,,,0.67,WeatherDisplay:10.37,2013-05-21 11:34:00,
2013-05-21 06:39:00,58.5,55.2,29.61,South,169,0.0,0.0,89,0.00,,,0.67,WeatherDisplay:10.37,2013-05-21 11:39:00,
2013-05-21 06:44:00,58.6,55.4,29.61,South,169,0.0,0.0,89,0.00,,,0.67,WeatherDisplay:10.37,2013-05-21 11:44:00,
2013-05-21 06:49:00,58.8,55.9,29.61,South,169,0.0,0.0,90,0.00,,,0.67,WeatherDisplay:10.37,2013-05-21 11:49:00,
2013-05-21 06:55:00,58.8,55.9,29.61,East,91,0.0,0.0,90,0.00,,,0.67,WeatherDisplay:10.37,2013-05-21 11:55:00,
2013-05-21 07:00:00,59.0,55.8,29.61,East,91,0.0,0.0,89,0.00,,,0.67,WeatherDisplay:10.37,2013-05-21 12:00:00,
2013-05-21 07:05:00,59.2,55.9,29.61,East,91,0.0,0.0,89,0.00,,,0.67,WeatherDisplay:10.37,2013-05-21 12:05:00,
2013-05-21 07:10:00,59.5,56.6,29.61,ENE,65,0.0,0.0,90,0.00,,,0.67,WeatherDisplay:10.37,2013-05-21 12:10:00,
2013-05-21 07:15:00,60.1,57.1,29.61,East,81,0.0,0.0,90,0.00,,,0.67,WeatherDisplay:10.37,2013-05-21 12:15:00,
2013-05-21 07:20:00,60.3,57.3,29.61,ENE,68,0.0,0.0,90,0.00,,,0.67,WeatherDisplay:10.37,2013-05-21 12:20:00,
2013-05-21 07:26:00,60.4,57.5,29.61,ENE,58,0.0,0.0,90,0.00,,,0.67,WeatherDisplay:10.37,2013-05-21 12:26:00,
2013-05-21 07:31:00,60.4,57.5,29.61,ENE,65,0.0,0.0,90,0.00,,,0.67,WeatherDisplay:10.37,2013-05-21 12:31:00,
2013-05-21 07:36:00,60.6,57.7,29.61,ENE,65,0.0,0.0,90,0.00,,,0.67,WeatherDisplay:10.37,2013-05-21 12:36:00,
2013-05-21 07:41:00,60.8,57.8,29.61,ENE,78,0.0,0.0,90,0.00,,,0.67,WeatherDisplay:10.37,2013-05-21 12:41:00,
2013-05-21 07:46:00,60.8,57.8,29.61,ENE,72,2.3,0.0,90,0.00,,,0.67,WeatherDisplay:10.37,2013-05-21 12:46:00,
2013-05-21 07:51:00,60.6,57.7,29.61,NE,54,0.0,0.0,90,0.00,,,0.67,WeatherDisplay:10.37,2013-05-21 12:51:00,
2013-05-21 07:56:00,60.8,57.8,29.61,East,101,0.0,0.0,90,0.00,,,0.67,WeatherDisplay:10.37,2013-05-21 12:56:00,
2013-05-21 08:01:00,61.3,58.4,29.61,SSE,155,0.0,0.0,90,0.00,,,0.67,WeatherDisplay:10.37,2013-05-21 13:01:00,
2013-05-21 08:06:00,61.7,58.7,29.61,East,91,0.0,0.0,90,0.00,,,0.67,WeatherDisplay:10.37,2013-05-21 13:06:00,
2013-05-21 08:11:00,61.9,58.9,29.61,East,84,0.0,0.0,90,0.00,,,0.67,WeatherDisplay:10.37,2013-05-21 13:11:00,
2013-05-21 08:17:00,61.9,58.9,29.61,East,84,0.0,0.0,90,0.00,,,0.67,WeatherDisplay:10.37,2013-05-21 13:17:00,
2013-05-21 08:22:00,61.9,58.9,29.61,East,84,0.0,0.0,90,0.00,,,0.67,WeatherDisplay:10.37,2013-05-21 13:22:00,
2013-05-21 08:27:00,62.1,59.1,29.61,SE,130,0.0,0.0,90,0.00,,,0.67,WeatherDisplay:10.37,2013-05-21 13:27:00,
2013-05-21 08:32:00,61.9,58.9,29.61,SE,130,0.0,0.0,90,0.00,,,0.67,WeatherDisplay:10.37,2013-05-21 13:32:00,
2013-05-21 08:37:00,62.1,59.4,29.61,ENE,68,0.0,0.0,91,0.00,,,0.67,WeatherDisplay:10.37,2013-05-21 13:37:00,
2013-05-21 08:42:00,62.1,59.4,29.61,SE,129,0.0,0.0,91,0.00,,,0.67,WeatherDisplay:10.37,2013-05-21 13:42:00,
2013-05-21 08:48:00,62.1,59.4,29.61,East,99,0.0,0.0,91,0.00,,,0.67,WeatherDisplay:10.37,2013-05-21 13:48:00,
2013-05-21 08:53:00,62.1,59.4,29.61,East,101,0.0,0.0,91,0.00,,,0.67,WeatherDisplay:10.37,2013-05-21 13:53:00,
2013-05-21 08:58:00,62.1,59.4,29.61,East,95,0.0,0.0,91,0.00,,,0.67,WeatherDisplay:10.37,2013-05-21 13:58:00,
2013-05-21 09:03:00,62.1,59.4,29.61,SSE,151,0.0,0.0,91,0.00,,,0.67,WeatherDisplay:10.37,2013-05-21 14:03:00,
2013-05-21 09:08:00,62.1,59.4,29.61,SE,146,0.0,0.0,91,0.00,,,0.67,WeatherDisplay:10.37,2013-05-21 14:08:00,
2013-05-21 09:13:00,62.1,59.4,29.61,ESE,107,0.0,0.0,91,0.00,,,0.67,WeatherDisplay:10.37,2013-05-21 14:13:00,
2013-05-21 09:19:00,62.1,59.4,29.61,SSE,158,2.3,0.0,91,0.00,,,0.67,WeatherDisplay:10.37,2013-05-21 14:19:00,
2013-05-21 09:24:00,62.2,59.6,29.61,ENE,67,3.5,0.0,91,0.00,,,0.67,WeatherDisplay:10.37,2013-05-21 14:24:00,
2013-05-21 09:29:00,62.2,59.6,29.61,ESE,102,0.0,0.0,91,0.00,,,0.67,WeatherDisplay:10.37,2013-05-21 14:29:00,
2013-05-21 09:35:00,62.2,59.6,29.61,SE,132,0.0,0.0,91,0.00,,,0.67,WeatherDisplay:10.37,2013-05-21 14:35:00,
2013-05-21 09:40:00,62.6,59.6,29.61,SE,132,0.0,0.0,90,0.00,,,0.67,WeatherDisplay:10.37,2013-05-21 14:40:00,
2013-05-21 09:45:00,63.0,60.0,29.61,ESE,122,0.0,0.0,90,0.00,,,0.67,WeatherDisplay:10.37,2013-05-21 14:45:00,
2013-05-21 09:50:00,63.3,60.3,29.61,ENE,73,3.5,3.5,90,0.00,,,0.67,WeatherDisplay:10.37,2013-05-21 14:50:00,
2013-05-21 09:55:00,63.3,60.3,29.61,SE,141,0.0,0.0,90,0.00,,,0.67,WeatherDisplay:10.37,2013-05-21 14:55:00,
2013-05-21 10:01:00,63.1,60.2,29.61,SE,141,0.0,0.0,90,0.00,,,0.67,WeatherDisplay:10.37,2013-05-21 15:01:00,
2013-05-21 10:06:00,63.0,60.0,29.61,SSE,155,0.0,0.0,90,0.00,,,0.67,WeatherDisplay:10.37,2013-05-21 15:06:00,
2013-05-21 10:11:00,62.8,59.5,29.61,ESE,115,0.0,0.0,89,0.00,,,0.67,WeatherDisplay:10.37,2013-05-21 15:11:00,
2013-05-21 10:16:00,62.6,59.3,29.61,SSE,168,0.0,0.0,89,0.00,,,0.67,WeatherDisplay:10.37,2013-05-21 15:16:00,
2013-05-21 10:21:00,62.4,59.1,29.61,East,100,0.0,0.0,89,0.00,,,0.67,WeatherDisplay:10.37,2013-05-21 15:21:00,
2013-05-21 10:27:00,62.4,59.1,29.61,East,93,0.0,0.0,89,0.00,,,0.67,WeatherDisplay:10.37,2013-05-21 15:27:00,
2013-05-21 10:32:00,62.6,59.3,29.61,SSE,151,0.0,0.0,89,0.01,RA,,0.68,WeatherDisplay:10.37,2013-05-21 15:32:00,
2013-05-21 10:37:00,63.1,59.8,29.61,East,96,0.0,0.0,89,0.01,RA,,0.68,WeatherDisplay:10.37,2013-05-21 15:37:00,
2013-05-21 10:42:00,63.5,60.2,29.61,East,97,0.0,0.0,89,0.02,RA,,0.69,WeatherDisplay:10.37,2013-05-21 15:42:00,
2013-05-21 10:48:00,63.9,60.6,29.61,East,91,2.3,0.0,89,0.02,RA,,0.69,WeatherDisplay:10.37,2013-05-21 15:48:00,
2013-05-21 10:53:00,64.0,60.7,29.61,ENE,74,0.0,0.0,89,0.02,,,0.69,WeatherDisplay:10.37,2013-05-21 15:53:00,
2013-05-21 10:58:00,64.4,61.1,29.61,ENE,74,0.0,0.0,89,0.02,,,0.69,WeatherDisplay:10.37,2013-05-21 15:58:00,
2013-05-21 11:04:00,64.4,61.1,29.61,SE,128,0.0,0.0,89,0.02,,,0.69,WeatherDisplay:10.37,2013-05-21 16:04:00,
2013-05-21 11:09:00,64.4,61.1,29.61,ESE,119,0.0,0.0,89,0.02,,,0.69,WeatherDisplay:10.37,2013-05-21 16:09:00,
2013-05-21 11:14:00,64.4,61.1,29.61,SE,129,0.0,0.0,89,0.02,,,0.69,WeatherDisplay:10.37,2013-05-21 16:14:00,
2013-05-21 11:19:00,64.6,61.3,29.61,ESE,115,0.0,0.0,89,0.02,,,0.69,WeatherDisplay:10.37,2013-05-21 16:19:00,
2013-05-21 11:24:00,64.4,60.8,29.61,SE,125,0.0,0.0,88,0.02,,,0.69,WeatherDisplay:10.37,2013-05-21 16:24:00,
2013-05-21 11:30:00,64.2,60.6,29.61,ESE,110,0.0,0.0,88,0.02,,,0.69,WeatherDisplay:10.37,2013-05-21 16:30:00,
2013-05-21 11:35:00,64.0,60.4,29.64,East,96,0.0,0.0,88,0.01,,,0.69,WeatherDisplay:10.37,2013-05-21 16:35:00,
2013-05-21 11:40:00,64.0,60.4,29.64,East,96,0.0,0.0,88,0.00,,,0.69,WeatherDisplay:10.37,2013-05-21 16:40:00,
2013-05-21 11:45:00,64.0,60.4,29.64,South,169,0.0,0.0,88,0.00,,,0.69,WeatherDisplay:10.37,2013-05-21 16:45:00,
2013-05-21 11:51:00,64.0,60.1,29.61,South,169,0.0,0.0,87,0.00,,,0.69,WeatherDisplay:10.37,2013-05-21 16:51:00,
2013-05-21 11:56:00,64.2,60.3,29.61,SSE,163,5.8,5.8,87,0.00,,,0.69,WeatherDisplay:10.37,2013-05-21 16:56:00,
2013-05-21 12:01:00,64.6,60.6,29.61,South,170,0.0,0.0,87,0.00,,,0.69,WeatherDisplay:10.37,2013-05-21 17:01:00,
2013-05-21 12:06:00,64.6,60.3,29.61,SW,235,3.5,0.0,86,0.00,,,0.69,WeatherDisplay:10.37,2013-05-21 17:06:00,
2013-05-21 12:11:00,64.8,60.1,29.61,SSW,208,0.0,0.0,85,0.00,,,0.69,WeatherDisplay:10.37,2013-05-21 17:11:00,
2013-05-21 12:17:00,64.9,60.0,29.61,SSW,208,2.3,0.0,84,0.00,,,0.69,WeatherDisplay:10.37,2013-05-21 17:17:00,
2013-05-21 12:22:00,65.1,59.8,29.61,SW,222,2.3,0.0,83,0.00,,,0.69,WeatherDisplay:10.37,2013-05-21 17:22:00,
2013-05-21 12:27:00,65.3,59.7,29.61,SSE,162,0.0,0.0,82,0.00,,,0.69,WeatherDisplay:10.37,2013-05-21 17:27:00,
2013-05-21 12:32:00,65.3,59.0,29.61,SSE,168,3.5,3.5,80,0.00,,,0.69,WeatherDisplay:10.37,2013-05-21 17:32:00,
2013-05-21 12:37:00,65.1,58.1,29.61,SSW,194,0.0,0.0,78,0.00,,,0.69,WeatherDisplay:10.37,2013-05-21 17:37:00,
2013-05-21 12:42:00,65.3,58.3,29.61,SSW,212,5.8,5.8,78,0.00,,,0.69,WeatherDisplay:10.37,2013-05-21 17:42:00,
2013-05-21 12:47:00,65.7,57.9,29.61,SSW,193,3.5,0.0,76,0.00,,,0.69,WeatherDisplay:10.37,2013-05-21 17:47:00,
2013-05-21 12:52:00,66.0,57.9,29.61,SW,229,5.8,5.8,75,0.00,,,0.69,WeatherDisplay:10.37,2013-05-21 17:52:00,
2013-05-21 12:57:00,66.2,56.9,29.61,SSW,213,5.8,5.8,72,0.00,,,0.69,WeatherDisplay:10.37,2013-05-21 17:57:00,
2013-05-21 13:03:00,66.6,56.9,29.61,NW,309,0.0,0.0,71,0.00,,,0.69,WeatherDisplay:10.37,2013-05-21 18:03:00,
2013-05-21 13:08:00,66.7,56.2,29.61,NW,309,3.5,3.5,69,0.00,,,0.69,WeatherDisplay:10.37,2013-05-21 18:08:00,
2013-05-21 13:13:00,66.7,55.8,29.61,SW,224,3.5,0.0,68,0.00,,,0.69,WeatherDisplay:10.37,2013-05-21 18:13:00,
2013-05-21 13:18:00,66.6,55.3,29.61,WSW,244,4.6,0.0,67,0.00,,,0.69,WeatherDisplay:10.37,2013-05-21 18:18:00,
2013-05-21 13:24:00,66.6,55.3,29.61,SW,232,3.6,3.6,67,0.00,,,0.69,WeatherDisplay:10.37,2013-05-21 18:24:00,
2013-05-21 13:29:00,66.7,55.0,29.61,SSW,211,2.3,2.3,66,0.00,,,0.69,WeatherDisplay:10.37,2013-05-21 18:29:00,
2013-05-21 13:34:00,66.7,54.2,29.64,WSW,243,3.5,3.5,64,0.00,,,0.69,WeatherDisplay:10.37,2013-05-21 18:34:00,
2013-05-21 13:39:00,66.9,54.3,29.64,SW,220,4.6,4.6,64,0.00,,,0.69,WeatherDisplay:10.37,2013-05-21 18:39:00,
2013-05-21 13:44:00,66.9,54.3,29.64,SSE,165,3.1,3.1,64,0.00,,,0.69,WeatherDisplay:10.37,2013-05-21 18:44:00,
2013-05-21 13:49:00,67.1,54.5,29.64,SSE,160,0.0,0.0,64,0.00,,,0.69,WeatherDisplay:10.37,2013-05-21 18:49:00,
2013-05-21 13:54:00,67.1,54.5,29.64,SW,220,0.0,0.0,64,0.00,,,0.69,WeatherDisplay:10.37,2013-05-21 18:54:00,
2013-05-21 13:59:00,67.1,54.5,29.64,SSW,193,4.6,4.6,64,0.00,,,0.69,WeatherDisplay:10.37,2013-05-21 18:59:00,
2013-05-21 14:04:00,67.1,54.1,29.64,SSW,202,2.3,0.0,63,0.00,,,0.69,WeatherDisplay:10.37,2013-05-21 19:04:00,
2013-05-21 14:10:00,67.1,53.6,29.64,SW,231,5.8,5.8,62,0.00,,,0.69,WeatherDisplay:10.37,2013-05-21 19:10:00,
2013-05-21 14:15:00,67.1,53.6,29.64,SSW,207,3.5,3.5,62,0.00,,,0.69,WeatherDisplay:10.37,2013-05-21 19:15:00,
2013-05-21 14:20:00,67.1,53.6,29.64,SW,225,2.7,0.0,62,0.00,,,0.69,WeatherDisplay:10.37,2013-05-21 19:20:00,
2013-05-21 14:44:00,66.2,52.8,29.64,North,0,3.5,0.0,62,0.00,CLR,,0.69,WeatherDisplay:10.37,2013-05-21 19:44:00,
2013-05-21 14:50:00,66.0,53.1,29.64,SW,226,5.8,5.8,63,0.00,RA,,0.69,WeatherDisplay:10.37,2013-05-21 19:50:00,
2013-05-21 14:55:00,65.3,52.8,29.64,WSW,247,10.4,10.4,64,0.02,RA,,0.72,WeatherDisplay:10.37,2013-05-21 19:55:00,
2013-05-21 15:00:00,64.4,52.4,29.64,SW,231,2.7,2.7,65,0.05,RA,,0.73,WeatherDisplay:10.37,2013-05-21 20:00:00,
2013-05-21 15:05:00,63.9,52.3,29.64,WSW,244,0.0,0.0,66,0.05,RA,,0.73,WeatherDisplay:10.37,2013-05-21 20:05:00,
2013-05-21 15:11:00,63.7,52.9,29.64,WSW,244,0.0,0.0,68,0.05,CLR,,0.73,WeatherDisplay:10.37,2013-05-21 20:11:00,
2013-05-21 15:16:00,64.2,55.0,29.64,SW,223,4.9,0.0,72,0.05,CLR,,0.73,WeatherDisplay:10.37,2013-05-21 20:16:00,
2013-05-21 15:21:00,65.1,57.0,29.64,SW,219,3.5,3.5,75,0.05,CLR,,0.73,WeatherDisplay:10.37,2013-05-21 20:21:00,
2013-05-21 15:26:00,65.5,58.1,29.64,SW,218,3.5,3.5,77,0.05,CLR,,0.73,WeatherDisplay:10.37,2013-05-21 20:26:00,
2013-05-21 15:31:00,65.8,57.3,29.64,SW,222,0.0,0.0,74,0.05,CLR,,0.73,WeatherDisplay:10.37,2013-05-21 20:31:00,
2013-05-21 15:36:00,65.7,56.0,29.64,WSW,237,4.6,4.6,71,0.05,CLR,,0.73,WeatherDisplay:10.37,2013-05-21 20:36:00,
2013-05-21 15:42:00,65.3,55.3,29.64,SW,227,0.0,0.0,70,0.05,CLR,,0.73,WeatherDisplay:10.37,2013-05-21 20:42:00,
2013-05-21 15:47:00,65.1,55.1,29.64,SW,227,0.0,0.0,70,0.05,CLR,,0.73,WeatherDisplay:10.37,2013-05-21 20:47:00,
2013-05-21 15:57:00,64.6,55.0,29.64,SW,227,0.0,0.0,71,0.05,CLR,,0.73,WeatherDisplay:10.37,2013-05-21 20:57:00,
2013-05-21 16:02:00,64.6,55.3,29.64,SSW,212,0.0,0.0,72,0.05,RA,,0.73,WeatherDisplay:10.37,2013-05-21 21:02:00,
2013-05-21 16:08:00,64.4,55.2,29.64,WNW,285,3.5,3.5,72,0.03,RA,,0.73,WeatherDisplay:10.37,2013-05-21 21:08:00,
2013-05-21 16:13:00,64.0,55.2,29.64,WNW,287,2.3,0.0,73,0.01,RA,,0.74,WeatherDisplay:10.37,2013-05-21 21:13:00,
2013-05-21 16:18:00,63.9,55.0,29.64,WNW,287,0.0,0.0,73,0.01,RA,,0.74,WeatherDisplay:10.37,2013-05-21 21:18:00,
2013-05-21 16:23:00,63.9,55.0,29.64,WNW,287,0.0,0.0,73,0.01,CLR,,0.74,WeatherDisplay:10.37,2013-05-21 21:23:00,
2013-05-21 16:29:00,64.2,56.1,29.64,WNW,287,0.0,0.0,75,0.01,CLR,,0.74,WeatherDisplay:10.37,2013-05-21 21:29:00,
2013-05-21 16:34:00,64.6,56.8,29.64,SW,217,0.0,0.0,76,0.01,,,0.74,WeatherDisplay:10.37,2013-05-21 21:34:00,
2013-05-21 16:39:00,65.1,57.4,29.64,SW,229,3.6,0.0,76,0.01,,,0.74,WeatherDisplay:10.37,2013-05-21 21:39:00,
2013-05-21 16:44:00,65.3,57.2,29.64,SW,222,0.0,0.0,75,0.01,,,0.74,WeatherDisplay:10.37,2013-05-21 21:44:00,
2013-05-21 16:50:00,65.7,57.1,29.67,SW,231,4.0,4.0,74,0.01,,,0.74,WeatherDisplay:10.37,2013-05-21 21:50:00,
2013-05-21 16:55:00,66.0,56.7,29.67,SW,236,3.5,0.0,72,0.01,,,0.74,WeatherDisplay:10.37,2013-05-21 21:55:00,
2013-05-21 17:00:00,66.6,56.9,29.67,North,357,5.8,5.8,71,0.01,,,0.74,WeatherDisplay:10.37,2013-05-21 22:00:00,
2013-05-21 17:05:00,66.9,56.0,29.67,SSW,204,5.8,5.8,68,0.01,,,0.74,WeatherDisplay:10.37,2013-05-21 22:05:00,
2013-05-21 17:10:00,66.6,53.1,29.67,SW,222,9.2,9.2,62,0.01,,,0.74,WeatherDisplay:10.37,2013-05-21 22:10:00,
2013-05-21 17:15:00,66.2,51.9,29.67,SW,231,8.1,8.1,60,0.00,,,0.74,WeatherDisplay:10.37,2013-05-21 22:15:00,
2013-05-21 17:20:00,65.8,51.1,29.67,SSW,204,5.8,5.8,59,0.00,,,0.74,WeatherDisplay:10.37,2013-05-21 22:20:00,
2013-05-21 17:26:00,65.7,51.8,29.67,WSW,241,4.6,4.6,61,0.00,,,0.74,WeatherDisplay:10.37,2013-05-21 22:26:00,
2013-05-21 17:31:00,65.7,52.3,29.67,SW,228,2.3,0.0,62,0.00,,,0.74,WeatherDisplay:10.37,2013-05-21 22:31:00,
2013-05-21 17:36:00,65.7,51.8,29.67,WSW,240,5.8,5.8,61,0.00,,,0.74,WeatherDisplay:10.37,2013-05-21 22:36:00,
2013-05-21 17:41:00,65.7,51.8,29.67,SW,230,3.5,0.0,61,0.00,,,0.74,WeatherDisplay:10.37,2013-05-21 22:41:00,
2013-05-21 17:46:00,65.5,51.2,29.67,WSW,256,5.8,0.0,60,0.00,,,0.74,WeatherDisplay:10.37,2013-05-21 22:46:00,
2013-05-21 17:51:00,65.5,51.2,29.67,SW,221,3.6,3.6,60,0.00,,,0.74,WeatherDisplay:10.37,2013-05-21 22:51:00,
2013-05-21 17:56:00,65.3,50.6,29.67,WSW,238,5.8,5.8,59,0.00,,,0.74,WeatherDisplay:10.37,2013-05-21 22:56:00,
2013-05-21 18:01:00,65.1,50.4,29.67,WSW,241,3.5,3.5,59,0.00,,,0.74,WeatherDisplay:10.37,2013-05-21 23:01:00,
2013-05-21 18:07:00,64.9,49.8,29.67,SW,233,4.0,4.0,58,0.00,,,0.74,WeatherDisplay:10.37,2013-05-21 23:07:00,
2013-05-21 18:12:00,64.6,49.0,29.67,SW,225,8.1,8.1,57,0.00,,,0.74,WeatherDisplay:10.37,2013-05-21 23:12:00,
2013-05-21 18:17:00,64.2,49.1,29.67,SW,222,5.8,5.8,58,0.00,,,0.74,WeatherDisplay:10.37,2013-05-21 23:17:00,
2013-05-21 18:22:00,63.9,49.2,29.67,SSW,205,5.8,5.8,59,0.00,,,0.74,WeatherDisplay:10.37,2013-05-21 23:22:00,
2013-05-21 18:27:00,63.7,49.1,29.67,SW,236,3.5,3.5,59,0.00,,,0.74,WeatherDisplay:10.37,2013-05-21 23:27:00,
2013-05-21 18:33:00,63.5,49.4,29.67,SSW,213,4.9,4.9,60,0.00,,,0.74,WeatherDisplay:10.37,2013-05-21 23:33:00,
2013-05-21 18:38:00,63.5,49.4,29.67,SW,234,2.3,2.3,60,0.00,,,0.74,WeatherDisplay:10.37,2013-05-21 23:38:00,
2013-05-21 18:43:00,63.5,49.4,29.67,SW,218,3.5,3.5,60,0.00,,,0.74,WeatherDisplay:10.37,2013-05-21 23:43:00,
2013-05-21 18:48:00,63.3,49.2,29.67,SW,235,3.5,3.6,60,0.00,,,0.74,WeatherDisplay:10.37,2013-05-21 23:48:00,
2013-05-21 18:54:00,63.3,48.7,29.67,SW,217,4.0,4.0,59,0.00,,,0.74,WeatherDisplay:10.37,2013-05-21 23:54:00,
2013-05-21 18:59:00,63.1,48.6,29.67,SW,233,3.5,3.6,59,0.00,,,0.74,WeatherDisplay:10.37,2013-05-21 23:59:00,
2013-05-21 19:04:00,63.0,48.4,29.67,SW,229,2.3,0.0,59,0.00,,,0.74,WeatherDisplay:10.37,2013-05-22 00:04:00,
2013-05-21 19:09:00,63.0,48.9,29.67,SW,235,0.0,0.0,60,0.00,,,0.74,WeatherDisplay:10.37,2013-05-22 00:09:00,
2013-05-21 19:14:00,62.8,48.7,29.67,SW,225,2.3,0.0,60,0.00,,,0.74,WeatherDisplay:10.37,2013-05-22 00:14:00,
2013-05-21 19:19:00,62.6,49.0,29.67,SW,225,0.0,0.0,61,0.00,,,0.74,WeatherDisplay:10.37,2013-05-22 00:19:00,
2013-05-21 19:24:00,62.6,49.4,29.67,SW,225,0.0,0.0,62,0.00,,,0.74,WeatherDisplay:10.37,2013-05-22 00:24:00,
2013-05-21 19:30:00,62.6,50.2,29.67,SW,225,0.0,0.0,64,0.00,,,0.74,WeatherDisplay:10.37,2013-05-22 00:30:00,
2013-05-21 19:35:00,62.4,50.1,29.67,SW,233,3.6,3.6,64,0.00,,,0.74,WeatherDisplay:10.37,2013-05-22 00:35:00,
2013-05-21 19:40:00,62.4,49.7,29.67,SW,233,2.3,0.0,63,0.00,,,0.74,WeatherDisplay:10.37,2013-05-22 00:40:00,
2013-05-21 19:45:00,62.1,48.4,29.67,WSW,257,4.6,4.6,61,0.00,,,0.74,WeatherDisplay:10.37,2013-05-22 00:45:00,
2013-05-21 19:51:00,61.7,47.7,29.70,West,278,5.8,5.8,60,0.00,,,0.74,WeatherDisplay:10.37,2013-05-22 00:51:00,
2013-05-21 19:56:00,61.3,47.3,29.70,SW,230,5.8,5.8,60,0.00,,,0.74,WeatherDisplay:10.37,2013-05-22 00:56:00,
2013-05-21 20:01:00,61.2,47.2,29.70,West,259,3.6,0.0,60,0.00,,,0.74,WeatherDisplay:10.37,2013-05-22 01:01:00,
2013-05-21 20:06:00,61.0,47.0,29.70,SW,215,5.8,5.8,60,0.00,,,0.74,WeatherDisplay:10.37,2013-05-22 01:06:00,
2013-05-21 20:11:00,60.8,46.8,29.70,SW,227,5.8,5.8,60,0.00,,,0.74,WeatherDisplay:10.37,2013-05-22 01:11:00,
2013-05-21 20:16:00,60.6,46.7,29.70,SW,229,3.5,3.5,60,0.00,,,0.74,WeatherDisplay:10.37,2013-05-22 01:16:00,
2013-05-21 20:21:00,60.4,46.9,29.70,SW,233,4.6,4.6,61,0.00,,,0.74,WeatherDisplay:10.37,2013-05-22 01:21:00,
2013-05-21 20:26:00,60.3,46.8,29.70,SW,235,3.5,3.5,61,0.00,,,0.74,WeatherDisplay:10.37,2013-05-22 01:26:00,
2013-05-21 20:31:00,60.1,47.0,29.70,SW,230,3.5,3.5,62,0.00,,,0.74,WeatherDisplay:10.37,2013-05-22 01:31:00,
2013-05-21 20:37:00,60.1,47.0,29.70,SW,224,4.0,4.0,62,0.00,,,0.74,WeatherDisplay:10.37,2013-05-22 01:37:00,
2013-05-21 20:42:00,59.9,47.3,29.70,SW,229,3.5,3.5,63,0.00,,,0.74,WeatherDisplay:10.37,2013-05-22 01:42:00,
2013-05-21 20:47:00,59.9,47.3,29.70,SW,236,3.1,3.1,63,0.00,,,0.74,WeatherDisplay:10.37,2013-05-22 01:47:00,
2013-05-21 20:52:00,59.7,47.1,29.70,SW,235,3.5,3.5,63,0.00,,,0.74,WeatherDisplay:10.37,2013-05-22 01:52:00,
2013-05-21 20:57:00,59.7,47.5,29.70,SW,235,2.3,2.3,64,0.00,,,0.74,WeatherDisplay:10.37,2013-05-22 01:57:00,
2013-05-21 21:03:00,59.7,47.5,29.70,SW,226,0.0,0.0,64,0.00,,,0.74,WeatherDisplay:10.37,2013-05-22 02:03:00,
2013-05-21 21:08:00,59.5,47.3,29.70,SW,226,0.0,0.0,64,0.00,,,0.74,WeatherDisplay:10.37,2013-05-22 02:08:00,
2013-05-21 21:13:00,59.4,47.6,29.70,SW,226,0.0,0.0,65,0.00,,,0.74,WeatherDisplay:10.37,2013-05-22 02:13:00,
2013-05-21 21:18:00,59.4,48.0,29.70,SW,226,0.0,0.0,66,0.00,,,0.74,WeatherDisplay:10.37,2013-05-22 02:18:00,
2013-05-21 21:23:00,59.5,48.6,29.70,SW,226,0.0,0.0,67,0.00,,,0.74,WeatherDisplay:10.37,2013-05-22 02:23:00,
2013-05-21 21:28:00,59.5,49.0,29.70,SW,226,0.0,0.0,68,0.00,,,0.74,WeatherDisplay:10.37,2013-05-22 02:28:00,
2013-05-21 21:33:00,59.5,49.4,29.70,SW,226,0.0,0.0,69,0.00,,,0.74,WeatherDisplay:10.37,2013-05-22 02:33:00,
2013-05-21 21:39:00,59.7,49.9,29.70,SW,226,0.0,0.0,70,0.00,,,0.74,WeatherDisplay:10.37,2013-05-22 02:39:00,
2013-05-21 21:44:00,59.7,50.3,29.70,SW,226,0.0,0.0,71,0.00,,,0.74,WeatherDisplay:10.37,2013-05-22 02:44:00,
2013-05-21 21:49:00,59.7,50.3,29.70,SW,226,0.0,0.0,71,0.00,,,0.74,WeatherDisplay:10.37,2013-05-22 02:49:00,
2013-05-21 21:54:00,59.5,50.5,29.70,SW,226,0.0,0.0,72,0.00,,,0.74,WeatherDisplay:10.37,2013-05-22 02:54:00,
2013-05-21 21:59:00,59.5,50.5,29.70,SW,226,0.0,0.0,72,0.00,,,0.74,WeatherDisplay:10.37,2013-05-22 02:59:00,
2013-05-21 22:04:00,59.5,50.9,29.70,SW,226,0.0,0.0,73,0.00,,,0.74,WeatherDisplay:10.37,2013-05-22 03:04:00,
2013-05-21 22:10:00,59.4,50.7,29.70,SW,226,0.0,0.0,73,0.00,,,0.74,WeatherDisplay:10.37,2013-05-22 03:10:00,
2013-05-21 22:15:00,59.4,51.1,29.70,SW,226,0.0,0.0,74,0.00,,,0.74,WeatherDisplay:10.37,2013-05-22 03:15:00,
2013-05-21 22:20:00,59.4,51.4,29.73,SW,226,0.0,0.0,75,0.00,,,0.74,WeatherDisplay:10.37,2013-05-22 03:20:00,
2013-05-21 22:25:00,59.4,51.4,29.73,East,97,0.0,0.0,75,0.00,,,0.74,WeatherDisplay:10.37,2013-05-22 03:25:00,
2013-05-21 22:30:00,59.2,51.6,29.73,East,91,3.5,3.5,76,0.00,,,0.74,WeatherDisplay:10.37,2013-05-22 03:30:00,
2013-05-21 22:35:00,59.0,51.4,29.73,ENE,77,0.0,0.0,76,0.00,,,0.74,WeatherDisplay:10.37,2013-05-22 03:35:00,
2013-05-21 22:40:00,58.8,51.3,29.73,ENE,71,2.3,0.0,76,0.00,,,0.74,WeatherDisplay:10.37,2013-05-22 03:40:00,
2013-05-21 22:45:00,58.6,50.7,29.73,East,79,3.5,0.0,75,0.00,,,0.74,WeatherDisplay:10.37,2013-05-22 03:45:00,
2013-05-21 22:50:00,58.3,50.0,29.73,ENE,58,0.0,0.0,74,0.00,,,0.74,WeatherDisplay:10.37,2013-05-22 03:50:00,
2013-05-21 22:56:00,58.3,50.0,29.73,NE,40,0.0,0.0,74,0.00,,,0.74,WeatherDisplay:10.37,2013-05-22 03:56:00,
2013-05-21 23:01:00,58.3,50.0,29.73,East,98,3.5,3.5,74,0.00,,,0.74,WeatherDisplay:10.37,2013-05-22 04:01:00,
2013-05-21 23:03:00,57.2,48.3,29.73,NNE,25,3.5,3.5,72,0.00,,,0.74,WeatherDisplay:10.37,2013-05-22 04:03:00,
2013-05-21 23:06:00,57.2,48.3,29.73,NNE,14,0.0,0.0,72,0.00,,,0.74,WeatherDisplay:10.37,2013-05-22 04:06:00,
2013-05-21 23:07:00,57.2,48.3,29.73,ENE,78,0.0,0.0,72,0.00,,,0.74,WeatherDisplay:10.37,2013-05-22 04:07:00,
2013-05-21 23:13:00,57.2,48.3,29.73,NNE,24,2.2,0.0,72,0.00,,,0.74,WeatherDisplay:10.37,2013-05-22 04:13:00,
2013-05-21 23:18:00,56.7,47.7,29.73,NNW,345,0.0,0.0,72,0.00,,,0.74,WeatherDisplay:10.37,2013-05-22 04:18:00,
2013-05-21 23:23:00,56.5,47.6,29.73,East,97,2.3,0.0,72,0.00,,,0.74,WeatherDisplay:10.37,2013-05-22 04:23:00,
2013-05-21 23:28:00,56.3,47.4,29.73,NNE,14,0.0,0.0,72,0.00,,,0.74,WeatherDisplay:10.37,2013-05-22 04:28:00,
2013-05-21 23:33:00,56.3,47.4,29.73,NNE,17,0.0,0.0,72,0.00,,,0.74,WeatherDisplay:10.37,2013-05-22 04:33:00,
2013-05-21 23:39:00,56.1,47.6,29.73,NNW,335,2.3,2.3,73,0.00,,,0.74,WeatherDisplay:10.37,2013-05-22 04:39:00,
2013-05-21 23:44:00,55.9,47.4,29.73,ENE,69,3.5,3.5,73,0.00,,,0.74,WeatherDisplay:10.37,2013-05-22 04:44:00,
2013-05-21 23:49:00,55.9,47.4,29.73,East,79,0.0,0.0,73,0.00,,,0.74,WeatherDisplay:10.37,2013-05-22 04:49:00,
2013-05-21 23:54:00,55.8,47.2,29.73,NNE,24,0.0,0.0,73,0.00,,,0.74,WeatherDisplay:10.37,2013-05-22 04:54:00,
2013-05-21 23:59:00,55.8,47.2,29.73,ENE,73,0.0,0.0,73,0.00,,,0.74,WeatherDisplay:10.37,2013-05-22 04:59:00,